Time;durP1;ratioP1;P1;durP2;ratioP2;P2;SDS_P1;SDS_P2;PMS_P1;PMS_P2;Temp;Humidity;BMP_temperature;BMP_pressure;BME280_temperature;BME280_humidity;BME280_pressure;Samples;Min_cycle;Max_cycle;Signal;HPM_P1;HPM_P2
2022/01/11 00:01:26;;;;;;;5.88;3.53;;;;;;;18.46;26.06;99797.19;5135360;27;20038;-65
2022/01/11 00:03:53;;;;;;;6.38;3.85;;;;;;;18.44;25.87;99791.16;5154047;27;20038;-64
2022/01/11 00:08:48;;;;;;;5.32;3.70;;;;;;;18.44;25.86;99801.88;5153489;27;20374;-65
2022/01/11 00:11:14;;;;;;;5.38;3.53;;;;;;;18.43;25.44;99801.03;5151655;27;20031;-65
2022/01/11 00:13:42;;;;;;;5.60;3.33;;;;;;;18.41;25.57;99805.72;5154701;27;20053;-64
2022/01/11 00:16:09;;;;;;;4.95;2.90;;;;;;;18.43;25.44;99810.94;5150532;27;20134;-64
2022/01/11 00:18:36;;;;;;;4.80;3.20;;;;;;;18.43;25.73;99805.56;5154519;27;20109;-65
2022/01/11 00:21:03;;;;;;;5.43;3.53;;;;;;;18.42;25.54;99811.94;5152148;27;20034;-64
2022/01/11 00:25:56;;;;;;;6.95;3.40;;;;;;;18.40;25.38;99819.28;5154421;27;20030;-64
2022/01/11 00:28:25;;;;;;;7.95;4.57;;;;;;;18.38;25.24;99816.75;5153770;27;20031;-64
2022/01/11 00:30:51;;;;;;;4.53;3.25;;;;;;;18.38;25.42;99815.94;5154251;27;20038;-64
2022/01/11 00:33:29;;;;;;;6.57;3.63;;;;;;;18.40;25.32;99820.13;5152926;27;20052;-64
2022/01/11 00:35:59;;;;;;;7.13;3.85;;;;;;;18.39;25.29;99825.66;5154258;27;20091;-65
2022/01/11 00:38:31;;;;;;;5.35;3.33;;;;;;;18.34;25.25;99823.47;5153409;27;20031;-63
2022/01/11 00:40:59;;;;;;;10.77;4.47;;;;;;;18.29;24.96;99829.31;5154191;27;20049;-64
2022/01/11 00:43:26;;;;;;;6.15;3.60;;;;;;;18.29;25.21;99825.78;5154090;27;20034;-64
2022/01/11 00:45:55;;;;;;;5.25;3.45;;;;;;;18.27;25.09;99838.50;5154241;27;20033;-65
2022/01/11 00:48:20;;;;;;;6.20;3.83;;;;;;;18.24;25.27;99834.31;5153348;27;20092;-65
2022/01/11 00:50:47;;;;;;;6.18;3.58;;;;;;;18.22;25.02;99833.66;5153981;27;20043;-65
2022/01/11 00:53:14;;;;;;;6.38;3.60;;;;;;;18.24;24.81;99845.03;5153873;27;20054;-65
2022/01/11 00:55:40;;;;;;;6.15;3.67;;;;;;;18.23;25.00;99845.22;5154099;27;20033;-64
2022/01/11 00:58:06;;;;;;;5.13;3.38;;;;;;;18.25;24.99;99851.22;5154019;27;20113;-65
2022/01/11 01:00:33;;;;;;;5.47;3.40;;;;;;;18.25;24.81;99860.09;5153442;27;20086;-64
2022/01/11 01:02:59;;;;;;;6.72;3.78;;;;;;;18.24;24.94;99861.09;5153926;27;20110;-65
2022/01/11 01:05:25;;;;;;;5.97;3.92;;;;;;;18.27;24.89;99863.47;5153985;27;20034;-65
2022/01/11 01:07:51;;;;;;;6.50;3.83;;;;;;;18.28;24.86;99867.81;5153633;27;20037;-65
2022/01/11 01:12:48;;;;;;;7.10;3.33;;;;;;;18.27;24.76;99876.84;5153770;27;20053;-65
2022/01/11 01:15:14;;;;;;;5.78;3.53;;;;;;;18.26;24.68;99877.84;5135412;27;20066;-65
2022/01/11 01:17:39;;;;;;;4.93;3.28;;;;;;;18.26;24.61;99875.19;5153457;27;20041;-65
2022/01/11 01:20:06;;;;;;;6.68;3.90;;;;;;;18.29;24.54;99892.75;5156788;27;20500;-65
2022/01/11 01:22:32;;;;;;;4.53;3.17;;;;;;;18.28;24.47;99880.38;5174178;27;20027;-64
2022/01/11 01:24:58;;;;;;;5.50;3.38;;;;;;;18.25;24.68;99884.22;5174570;27;20382;-64
2022/01/11 01:27:24;;;;;;;6.32;4.65;;;;;;;18.25;24.67;99892.25;5168840;27;20083;-65
2022/01/11 01:29:49;;;;;;;5.57;3.17;;;;;;;18.24;24.57;99887.03;5153561;27;20396;-66
2022/01/11 01:32:15;;;;;;;8.05;4.18;;;;;;;18.22;24.50;99894.41;5154252;27;20034;-66
2022/01/11 01:34:41;;;;;;;9.38;3.72;;;;;;;18.20;24.51;99905.28;5153589;27;20026;-66
2022/01/11 01:37:07;;;;;;;5.85;3.72;;;;;;;18.22;24.24;99894.41;5153880;27;20039;-64
2022/01/11 01:39:34;;;;;;;5.95;3.22;;;;;;;18.21;24.37;99898.94;5154253;27;20046;-64
2022/01/11 01:42:03;;;;;;;6.28;3.67;;;;;;;18.22;24.38;99892.56;5157642;27;20050;-63
2022/01/11 01:44:30;;;;;;;6.22;3.92;;;;;;;18.21;24.46;99901.59;5157233;27;20069;-63
2022/01/11 01:46:56;;;;;;;5.57;3.60;;;;;;;18.22;24.28;99899.78;5157751;27;20110;-64
2022/01/11 01:49:23;;;;;;;5.85;2.95;;;;;;;18.22;24.50;99911.31;5157665;27;20447;-64
2022/01/11 01:51:49;;;;;;;5.22;3.00;;;;;;;18.21;24.13;99912.31;5157608;27;20404;-63
2022/01/11 01:54:16;;;;;;;5.00;2.97;;;;;;;18.21;24.36;99912.31;5157274;27;20041;-65
2022/01/11 01:56:43;;;;;;;5.18;3.38;;;;;;;18.22;24.14;99914.00;5143212;27;20087;-65
2022/01/11 01:59:09;;;;;;;5.32;3.40;;;;;;;18.22;23.84;99905.97;5136934;27;20046;-65
2022/01/11 02:01:41;;;;;;;4.40;3.05;;;;;;;18.22;23.89;99911.31;5157135;27;20034;-65
2022/01/11 02:04:07;;;;;;;4.57;3.08;;;;;;;18.20;24.28;99913.31;5156217;27;20091;-66
2022/01/11 02:06:32;;;;;;;5.43;3.45;;;;;;;18.24;24.02;99920.03;5157539;27;20442;-64
2022/01/11 02:08:58;;;;;;;6.70;3.33;;;;;;;18.26;24.23;99917.19;5145397;27;20062;-66
2022/01/11 02:11:24;;;;;;;4.05;2.95;;;;;;;18.26;24.18;99917.19;5136467;27;20039;-66
2022/01/11 02:13:51;;;;;;;5.35;2.90;;;;;;;18.27;24.17;99924.22;5153087;27;20035;-65
2022/01/11 02:16:21;;;;;;;5.43;2.97;;;;;;;18.26;24.14;99915.34;5157306;27;20041;-65
2022/01/11 02:18:47;;;;;;;4.25;2.80;;;;;;;18.23;24.40;99913.00;5156800;27;20060;-65
2022/01/11 02:21:13;;;;;;;4.65;3.00;;;;;;;18.24;24.04;99927.22;5157029;27;20531;-65
2022/01/11 02:23:38;;;;;;;4.30;2.97;;;;;;;18.22;24.09;99919.34;5156186;27;20516;-65
2022/01/11 02:26:05;;;;;;;4.18;2.85;;;;;;;18.21;23.98;99915.00;5156616;27;20073;-66
2022/01/11 02:28:31;;;;;;;3.53;2.60;;;;;;;18.21;23.93;99916.84;5155929;27;20035;-65
2022/01/11 02:30:59;;;;;;;5.93;3.00;;;;;;;18.23;24.08;99914.84;5157052;27;20091;-65
2022/01/11 02:33:33;;;;;;;3.67;2.75;;;;;;;18.23;23.89;99912.16;5157452;27;20062;-65
2022/01/11 02:36:01;;;;;;;5.63;2.53;;;;;;;18.21;24.04;99925.72;5156943;27;20041;-65
2022/01/11 02:38:27;;;;;;;3.60;2.25;;;;;;;18.22;24.04;99931.91;5156536;27;20035;-65
2022/01/11 02:40:52;;;;;;;5.20;2.67;;;;;;;18.22;24.05;99924.72;5156970;27;20461;-66
2022/01/11 02:43:18;;;;;;;3.60;2.55;;;;;;;18.23;23.99;99942.47;5154961;27;20034;-65
2022/01/11 02:45:44;;;;;;;4.00;3.00;;;;;;;18.21;24.11;99935.59;5156118;27;20034;-65
2022/01/11 02:48:09;;;;;;;4.40;2.70;;;;;;;18.19;23.86;99927.69;5156351;27;20117;-65
2022/01/11 02:50:35;;;;;;;5.60;3.42;;;;;;;18.19;23.87;99937.59;5156800;27;20066;-65
2022/01/11 02:53:01;;;;;;;3.28;2.30;;;;;;;18.19;23.73;99941.09;5155761;27;20520;-65
2022/01/11 02:55:27;;;;;;;3.97;3.00;;;;;;;18.17;23.71;99936.91;5156454;27;20401;-65
2022/01/11 02:57:54;;;;;;;4.30;3.13;;;;;;;18.18;23.69;99950.13;5155954;27;20086;-65
2022/01/11 03:00:21;;;;;;;4.43;2.70;;;;;;;18.18;23.83;99950.13;5156667;27;20034;-65
2022/01/11 03:02:47;;;;;;;4.22;2.92;;;;;;;18.18;23.92;99949.31;5156095;27;20134;-65
2022/01/11 03:05:14;;;;;;;4.10;2.90;;;;;;;18.19;23.64;99949.13;5156260;27;20485;-65
2022/01/11 03:07:41;;;;;;;4.90;3.67;;;;;;;18.19;23.83;99957.16;5155076;27;20057;-65
2022/01/11 03:10:20;;;;;;;4.22;3.15;;;;;;;18.17;23.75;99956.47;5135379;27;20885;-65
2022/01/11 03:12:46;;;;;;;5.32;3.78;;;;;;;18.15;23.66;99953.97;5135363;27;20073;-65
2022/01/11 03:15:13;;;;;;;5.20;3.70;;;;;;;18.14;23.85;99960.31;5135617;27;20079;-65
2022/01/11 03:17:39;;;;;;;5.55;4.43;;;;;;;18.14;23.75;99957.66;5149477;27;20397;-65
2022/01/11 03:20:07;;;;;;;3.83;2.60;;;;;;;18.12;23.65;99956.97;5155872;27;20035;-65
2022/01/11 03:22:32;;;;;;;4.55;2.85;;;;;;;18.10;24.00;99958.13;5155268;27;20054;-65
2022/01/11 03:24:58;;;;;;;4.50;2.90;;;;;;;18.10;23.70;99963.50;5156332;27;20382;-65
2022/01/11 03:27:23;;;;;;;4.53;3.28;;;;;;;18.08;23.82;99973.50;5150266;27;20405;-66
2022/01/11 03:29:51;;;;;;;3.80;2.83;;;;;;;18.06;23.47;99973.69;5135150;27;20039;-65
2022/01/11 03:32:18;;;;;;;4.15;3.45;;;;;;;18.01;23.83;99967.97;5134937;27;20031;-64
2022/01/11 03:34:45;;;;;;;4.40;2.80;;;;;;;18.02;23.84;99966.09;5155558;27;20035;-65
2022/01/11 03:37:16;;;;;;;5.05;3.53;;;;;;;18.03;23.72;99970.47;5154822;27;20030;-65
2022/01/11 03:39:41;;;;;;;5.60;3.10;;;;;;;18.03;23.83;99963.28;5155550;27;20042;-65
2022/01/11 03:42:07;;;;;;;4.30;2.90;;;;;;;18.02;23.57;99969.63;5155484;27;20034;-65
2022/01/11 03:44:32;;;;;;;3.63;2.40;;;;;;;17.99;23.65;99969.94;5155435;27;20085;-66
2022/01/11 03:47:02;;;;;;;4.80;3.05;;;;;;;18.01;23.65;99977.84;5155425;27;20121;-66
2022/01/11 03:49:27;;;;;;;4.53;3.10;;;;;;;18.01;23.57;99991.22;5155313;27;20038;-66
2022/01/11 03:51:53;;;;;;;3.63;2.55;;;;;;;18.01;23.75;99994.72;5155174;27;20501;-66
2022/01/11 03:54:25;;;;;;;4.65;3.15;;;;;;;18.00;23.68;99982.34;5155543;27;20023;-65
2022/01/11 03:56:52;;;;;;;4.68;2.35;;;;;;;18.00;23.77;99990.38;5155429;27;20109;-66
2022/01/11 03:59:18;;;;;;;4.05;2.53;;;;;;;17.99;23.63;99997.59;5154451;27;20404;-66
2022/01/11 04:01:44;;;;;;;3.90;2.58;;;;;;;17.97;23.51;99994.22;5154535;27;20058;-66
2022/01/11 04:04:10;;;;;;;3.10;2.15;;;;;;;18.01;23.50;100001.94;5154650;27;20038;-65
2022/01/11 04:06:36;;;;;;;4.20;2.67;;;;;;;17.97;23.26;100001.38;5155061;27;20030;-66
2022/01/11 04:09:04;;;;;;;4.10;2.42;;;;;;;17.96;23.54;100008.56;5136659;27;20090;-66
2022/01/11 04:11:29;;;;;;;3.22;2.28;;;;;;;17.96;23.59;100008.56;5154844;27;20409;-66
2022/01/11 04:13:55;;;;;;;4.45;2.72;;;;;;;17.94;23.31;100005.19;5155103;27;20027;-65
2022/01/11 04:16:20;;;;;;;3.55;2.50;;;;;;;17.97;23.40;100017.44;5154938;27;20037;-65
2022/01/11 04:18:46;;;;;;;4.32;2.85;;;;;;;17.95;23.44;100012.25;5154467;27;20511;-65
2022/01/11 04:21:12;;;;;;;4.28;2.40;;;;;;;17.93;23.42;100016.09;5154696;27;20121;-65
2022/01/11 04:23:38;;;;;;;4.47;2.90;;;;;;;17.92;23.55;100025.09;5154583;27;20034;-65
2022/01/11 04:26:05;;;;;;;3.92;2.38;;;;;;;17.93;23.51;100018.75;5155268;27;20037;-65
2022/01/11 04:28:30;;;;;;;4.35;3.17;;;;;;;17.94;23.28;100034.66;5154164;27;20034;-65
2022/01/11 04:31:00;;;;;;;5.53;2.80;;;;;;;17.92;23.33;100027.78;5154979;27;20042;-66
2022/01/11 04:33:30;;;;;;;3.47;2.67;;;;;;;17.92;23.15;100031.28;5154086;27;20040;-66
2022/01/11 04:35:57;;;;;;;3.75;2.35;;;;;;;17.92;23.39;100038.50;5154549;27;20030;-66
2022/01/11 04:38:26;;;;;;;4.25;2.58;;;;;;;17.90;23.22;100049.34;5154311;27;20033;-64
2022/01/11 04:40:51;;;;;;;4.53;2.75;;;;;;;17.91;23.22;100047.53;5154608;27;20037;-64
2022/01/11 04:43:17;;;;;;;3.97;2.67;;;;;;;17.89;23.32;100046.81;5154354;27;20031;-65
2022/01/11 04:45:43;;;;;;;3.35;2.40;;;;;;;17.88;23.42;100051.31;5154367;27;20034;-65
2022/01/11 04:48:09;;;;;;;3.72;2.40;;;;;;;17.88;23.59;100054.00;5154134;27;20030;-65
2022/01/11 04:50:35;;;;;;;3.80;2.30;;;;;;;17.87;23.28;100055.00;5154333;27;20080;-66
2022/01/11 04:53:01;;;;;;;3.67;2.33;;;;;;;17.91;23.41;100052.88;5154325;27;20439;-65
2022/01/11 04:55:27;;;;;;;4.07;2.60;;;;;;;17.93;23.59;100064.28;5154041;27;20039;-66
2022/01/11 04:57:53;;;;;;;4.65;2.60;;;;;;;17.90;23.54;100060.03;5152499;27;20413;-64
2022/01/11 05:00:22;;;;;;;5.00;3.03;;;;;;;17.91;23.64;100064.41;5154239;27;20105;-65
2022/01/11 05:02:47;;;;;;;3.92;2.55;;;;;;;17.92;23.81;100060.72;5153714;27;20054;-66
2022/01/11 05:05:15;;;;;;;4.18;2.65;;;;;;;17.93;23.37;100057.06;5154268;27;20044;-65
2022/01/11 05:07:45;;;;;;;3.97;2.65;;;;;;;17.95;23.71;100063.09;5153199;27;20468;-64
2022/01/11 05:10:11;;;;;;;4.07;2.83;;;;;;;17.97;23.41;100070.97;5152937;27;20050;-65
2022/01/11 05:12:40;;;;;;;4.55;2.78;;;;;;;17.96;23.59;100078.19;5154172;27;20542;-65
2022/01/11 05:15:11;;;;;;;3.95;2.70;;;;;;;17.96;23.67;100074.66;5153676;27;20055;-65
2022/01/11 05:17:37;;;;;;;3.97;2.80;;;;;;;17.95;23.54;100087.19;5154052;27;20034;-65
2022/01/11 05:20:04;;;;;;;3.60;2.35;;;;;;;17.96;23.61;100077.31;5153276;27;20094;-65
2022/01/11 05:22:30;;;;;;;4.32;2.67;;;;;;;17.94;23.42;100085.53;5154109;27;20034;-65
2022/01/11 05:24:55;;;;;;;3.20;2.33;;;;;;;17.92;23.55;100081.31;5153758;27;20406;-66
2022/01/11 05:27:21;;;;;;;3.92;2.42;;;;;;;17.93;23.48;100097.22;5153562;27;20042;-65
2022/01/11 05:29:46;;;;;;;4.00;2.58;;;;;;;17.94;23.61;100100.75;5153275;27;20121;-65
2022/01/11 05:32:12;;;;;;;3.40;2.50;;;;;;;17.90;23.63;100094.84;5153814;27;20042;-65
2022/01/11 05:34:37;;;;;;;4.25;2.78;;;;;;;17.87;23.55;100105.84;5153665;27;20056;-65
2022/01/11 05:37:03;;;;;;;4.28;2.63;;;;;;;17.85;23.63;100103.34;5153772;27;20493;-65
2022/01/11 05:39:29;;;;;;;4.90;2.95;;;;;;;17.84;23.38;100101.66;5153109;27;20404;-64
2022/01/11 05:41:54;;;;;;;3.00;2.40;;;;;;;17.85;23.25;100102.53;5152852;27;20066;-65
2022/01/11 05:44:21;;;;;;;3.80;2.42;;;;;;;17.86;22.88;100096.19;5153490;27;20035;-66
2022/01/11 05:46:46;;;;;;;3.80;2.60;;;;;;;17.84;22.95;100104.34;5153521;27;20053;-66
2022/01/11 05:49:13;;;;;;;5.95;2.88;;;;;;;17.83;22.92;100102.66;5153464;27;20035;-65
2022/01/11 05:51:38;;;;;;;4.97;2.63;;;;;;;17.82;22.85;100108.19;5153844;27;20038;-65
2022/01/11 05:54:04;;;;;;;3.08;2.00;;;;;;;17.83;22.84;100115.22;5152828;27;20030;-66
2022/01/11 05:56:29;;;;;;;3.65;2.25;;;;;;;17.82;23.07;100109.00;5153545;27;20126;-66
2022/01/11 05:58:55;;;;;;;5.00;2.72;;;;;;;17.81;23.08;100122.56;5153487;27;20034;-64
2022/01/11 06:01:23;;;;;;;4.50;2.78;;;;;;;17.83;22.71;100125.94;5153553;27;20027;-67
2022/01/11 06:03:48;;;;;;;4.32;2.47;;;;;;;17.84;22.68;100116.91;5152807;27;20041;-66
2022/01/11 06:06:14;;;;;;;4.20;2.45;;;;;;;17.85;22.76;100124.75;5153923;27;20031;-66
2022/01/11 06:08:40;;;;;;;3.53;2.30;;;;;;;17.87;22.74;100134.47;5152507;27;20397;-66
2022/01/11 06:11:06;;;;;;;5.50;2.20;;;;;;;17.84;22.72;100127.59;5153627;27;20053;-66
2022/01/11 06:13:32;;;;;;;3.28;2.05;;;;;;;17.86;22.77;100139.00;5153031;27;20035;-68
2022/01/11 06:15:57;;;;;;;3.28;2.28;;;;;;;17.87;22.87;100135.31;5153528;27;20031;-66
2022/01/11 06:18:23;;;;;;;3.58;2.10;;;;;;;17.87;23.27;100140.66;5145926;27;20027;-66
2022/01/11 06:20:48;;;;;;;5.35;2.45;;;;;;;17.85;23.01;100140.81;5132780;28;20130;-66
2022/01/11 06:23:14;;;;;;;4.18;2.08;;;;;;;17.84;22.91;100157.06;5141219;27;20034;-65
2022/01/11 06:25:39;;;;;;;4.20;2.03;;;;;;;17.86;23.26;100152.38;5153043;27;20031;-66
2022/01/11 06:28:05;;;;;;;4.13;2.13;;;;;;;17.84;23.34;100162.41;5144746;27;20237;-65
2022/01/11 06:30:31;;;;;;;4.38;2.53;;;;;;;17.83;23.16;100168.75;5136370;27;20110;-65
2022/01/11 06:32:56;;;;;;;3.80;2.35;;;;;;;17.82;23.12;100167.06;5139273;27;20030;-65
2022/01/11 06:35:23;;;;;;;5.22;2.40;;;;;;;17.83;22.71;100171.44;5157041;27;20034;-65
2022/01/11 06:37:49;;;;;;;3.35;2.08;;;;;;;17.82;22.96;100162.53;5156639;27;20404;-65
2022/01/11 06:40:17;;;;;;;3.17;2.17;;;;;;;17.84;22.77;100167.75;5156956;27;20034;-66
2022/01/11 06:42:44;;;;;;;3.78;2.53;;;;;;;17.85;22.58;100172.13;5156127;27;20050;-66
2022/01/11 06:45:11;;;;;;;3.35;2.42;;;;;;;17.87;22.73;100169.28;5156796;27;20061;-66
2022/01/11 06:47:37;;;;;;;4.53;2.15;;;;;;;17.85;22.81;100177.47;5156511;27;20107;-66
2022/01/11 06:50:03;;;;;;;3.40;2.40;;;;;;;17.83;22.71;100176.78;5156481;27;20023;-67
2022/01/11 06:52:28;;;;;;;4.10;2.30;;;;;;;17.82;22.45;100175.94;5156288;27;20030;-66
2022/01/11 06:54:54;;;;;;;3.40;2.50;;;;;;;17.81;22.61;100181.44;5156355;27;20030;-67
2022/01/11 06:57:20;;;;;;;4.60;2.85;;;;;;;17.82;22.50;100177.78;5156016;27;20109;-66
2022/01/11 06:59:45;;;;;;;3.45;2.33;;;;;;;17.80;22.36;100174.41;5156096;27;20071;-67
2022/01/11 07:02:11;;;;;;;3.13;2.13;;;;;;;17.77;22.11;100186.28;5156073;27;20521;-66
2022/01/11 07:04:37;;;;;;;2.90;2.13;;;;;;;17.77;22.13;100174.69;5156118;27;20146;-66
2022/01/11 07:07:07;;;;;;;3.97;2.63;;;;;;;17.77;22.32;100180.91;5155813;27;20117;-66
2022/01/11 07:09:34;;;;;;;3.65;2.53;;;;;;;17.79;22.02;100188.78;5155938;27;20149;-66
2022/01/11 07:11:59;;;;;;;4.63;2.58;;;;;;;17.82;22.09;100191.16;5155796;27;20054;-66
2022/01/11 07:14:25;;;;;;;3.90;2.30;;;;;;;17.82;22.22;100196.50;5156123;27;20073;-66
2022/01/11 07:16:50;;;;;;;2.92;1.90;;;;;;;17.81;22.23;100202.84;5156287;27;20075;-66
2022/01/11 07:19:17;;;;;;;3.30;2.25;;;;;;;17.81;22.21;100203.69;5155088;27;20071;-66
2022/01/11 07:21:44;;;;;;;3.70;2.20;;;;;;;17.81;22.13;100213.56;5155870;27;20031;-66
2022/01/11 07:24:11;;;;;;;3.85;2.13;;;;;;;17.81;21.77;100213.56;5156342;27;20030;-66
2022/01/11 07:26:37;;;;;;;3.25;2.00;;;;;;;17.80;21.70;100217.22;5156022;27;20521;-66
2022/01/11 07:29:05;;;;;;;2.78;2.00;;;;;;;17.78;21.85;100221.88;5154886;27;20042;-66
2022/01/11 07:31:31;;;;;;;2.75;1.75;;;;;;;17.77;21.80;100228.22;5155961;27;20478;-66
2022/01/11 07:33:57;;;;;;;3.58;2.30;;;;;;;17.75;21.73;100220.38;5155497;27;20127;-66
2022/01/11 07:36:22;;;;;;;3.50;2.13;;;;;;;17.77;21.77;100225.56;5155646;27;20235;-66
2022/01/11 07:38:50;;;;;;;3.35;1.77;;;;;;;17.75;21.81;100228.41;5154558;27;20046;-67
2022/01/11 07:41:17;;;;;;;2.42;1.73;;;;;;;17.72;21.82;100233.22;5155057;27;20043;-66
2022/01/11 07:43:42;;;;;;;2.65;2.03;;;;;;;17.73;22.02;100245.56;5155146;27;20027;-66
2022/01/11 07:46:08;;;;;;;4.05;2.20;;;;;;;17.71;21.91;100252.94;5155425;27;20117;-66
2022/01/11 07:48:33;;;;;;;3.42;2.20;;;;;;;17.69;21.74;100245.03;5154889;27;20022;-66
2022/01/11 07:50:59;;;;;;;2.97;2.08;;;;;;;17.69;21.87;100250.41;5155171;27;20087;-65
2022/01/11 07:53:24;;;;;;;3.97;2.17;;;;;;;17.69;21.90;100250.41;5155121;27;20046;-65
2022/01/11 07:55:50;;;;;;;3.55;1.85;;;;;;;17.72;21.73;100249.28;5155401;27;20499;-66
2022/01/11 07:58:15;;;;;;;3.30;2.10;;;;;;;17.71;21.61;100251.09;5154799;27;20070;-66
2022/01/11 08:00:42;;;;;;;4.35;2.53;;;;;;;17.74;21.87;100252.63;5155421;27;20401;-65
2022/01/11 08:03:08;;;;;;;2.92;2.15;;;;;;;17.75;21.67;100259.66;5154352;27;20137;-66
2022/01/11 08:05:34;;;;;;;3.85;1.95;;;;;;;17.75;21.06;100267.69;5155183;27;20088;-65
2022/01/11 08:07:59;;;;;;;3.75;2.28;;;;;;;17.73;21.75;100251.78;5155131;27;20030;-65
2022/01/11 08:10:25;;;;;;;3.22;1.92;;;;;;;17.72;21.82;100255.47;5154889;27;20034;-65
2022/01/11 08:12:51;;;;;;;4.20;2.25;;;;;;;17.74;21.44;100257.97;5154195;27;20034;-65
2022/01/11 08:15:16;;;;;;;3.30;2.00;;;;;;;17.77;21.45;100253.19;5155131;27;20045;-65
2022/01/11 08:17:42;;;;;;;3.65;1.65;;;;;;;17.77;21.70;100253.19;5155267;27;20022;-65
2022/01/11 08:20:08;;;;;;;2.65;1.70;;;;;;;17.77;21.27;100255.00;5155098;27;20041;-65
2022/01/11 08:22:34;;;;;;;4.95;2.17;;;;;;;17.78;21.50;100264.72;5154649;27;20456;-65
2022/01/11 08:24:59;;;;;;;3.35;1.90;;;;;;;17.77;21.32;100268.38;5154159;27;20030;-65
2022/01/11 08:27:25;;;;;;;2.38;1.80;;;;;;;17.75;21.58;100271.22;5153403;27;20038;-65
2022/01/11 08:29:51;;;;;;;2.65;1.50;;;;;;;17.74;21.50;100261.50;5154774;27;20180;-65
2022/01/11 08:32:17;;;;;;;3.00;1.98;;;;;;;17.78;21.65;100273.59;5154870;27;20396;-65
2022/01/11 08:34:44;;;;;;;3.75;1.90;;;;;;;17.80;21.62;100271.59;5154462;27;20019;-65
2022/01/11 08:37:10;;;;;;;4.13;2.30;;;;;;;17.82;21.37;100279.50;5154790;27;20133;-65
2022/01/11 08:39:36;;;;;;;3.45;2.13;;;;;;;17.80;21.19;100276.13;5154444;27;20041;-65
2022/01/11 08:42:02;;;;;;;2.42;1.83;;;;;;;17.77;21.19;100271.06;5154417;27;20026;-65
2022/01/11 08:44:28;;;;;;;3.40;2.10;;;;;;;17.76;21.42;100270.22;5153996;27;20374;-65
2022/01/11 08:46:54;;;;;;;4.35;2.60;;;;;;;17.75;21.17;100273.91;5154229;27;20026;-65
2022/01/11 08:49:21;;;;;;;2.75;1.70;;;;;;;17.76;20.96;100266.69;5153315;27;20035;-66
2022/01/11 08:51:46;;;;;;;2.95;2.00;;;;;;;17.77;21.28;100269.25;5154495;27;20091;-66
2022/01/11 08:54:12;;;;;;;2.67;1.88;;;;;;;17.79;21.04;100269.09;5154536;27;20042;-66
2022/01/11 08:56:39;;;;;;;3.38;2.00;;;;;;;17.80;20.97;100265.41;5154388;27;20027;-65
2022/01/11 08:59:04;;;;;;;4.38;1.80;;;;;;;17.80;21.10;100266.25;5152889;27;20030;-65
2022/01/11 09:01:34;;;;;;;3.15;2.08;;;;;;;17.81;21.13;100270.59;5153905;27;20401;-66
2022/01/11 09:04:01;;;;;;;3.13;2.60;;;;;;;17.81;21.00;100272.47;5153752;27;20022;-66
2022/01/11 09:06:26;;;;;;;3.47;2.08;;;;;;;17.82;21.31;100263.44;5153669;27;20442;-65
2022/01/11 09:08:52;;;;;;;4.03;2.10;;;;;;;17.80;21.33;100271.59;5151976;27;20066;-65
2022/01/11 09:11:18;;;;;;;3.03;1.83;;;;;;;17.82;21.45;100271.47;5150647;27;20030;-64
2022/01/11 09:13:45;;;;;;;4.72;2.08;;;;;;;17.84;21.45;100266.81;5142077;27;20035;-65
2022/01/11 09:16:12;;;;;;;3.17;1.90;;;;;;;17.85;21.29;100271.16;5154517;27;20546;-64
2022/01/11 09:18:38;;;;;;;2.53;1.85;;;;;;;17.87;21.10;100277.19;5153379;27;20038;-65
2022/01/11 09:21:05;;;;;;;3.85;2.35;;;;;;;17.88;21.32;100272.69;5152260;27;20034;-65
2022/01/11 09:23:32;;;;;;;4.85;2.30;;;;;;;17.92;22.23;100276.75;5149940;27;20027;-65
2022/01/11 09:25:58;;;;;;;4.40;1.92;;;;;;;17.94;22.42;100274.78;5148062;27;20026;-65
2022/01/11 09:28:24;;;;;;;4.03;2.00;;;;;;;17.96;22.70;100284.34;5151375;27;20030;-66
2022/01/11 09:30:51;;;;;;;2.53;1.90;;;;;;;17.97;22.73;100282.50;5147392;27;20027;-66
2022/01/11 09:33:17;;;;;;;9.02;2.20;;;;;;;18.03;22.92;100289.97;5146923;27;20046;-65
2022/01/11 09:35:43;;;;;;;3.53;2.05;;;;;;;18.03;23.21;100286.44;5153270;27;20022;-65
2022/01/11 09:38:09;;;;;;;4.63;2.40;;;;;;;18.06;23.68;100288.81;5152610;27;20031;-64
2022/01/11 09:40:35;;;;;;;5.25;2.55;;;;;;;18.06;23.49;100287.00;5153351;27;20026;-74
2022/01/11 09:43:01;;;;;;;3.53;2.00;;;;;;;18.08;23.79;100293.03;5146497;27;20027;-67
2022/01/11 09:45:26;;;;;;;3.90;2.40;;;;;;;18.09;23.76;100275.13;5133548;27;20031;-68
2022/01/11 09:47:52;;;;;;;4.13;2.33;;;;;;;18.09;23.99;100285.84;5152813;27;20027;-67
2022/01/11 09:50:19;;;;;;;7.93;2.50;;;;;;;18.08;24.41;100287.69;5153846;27;20073;-68
2022/01/11 09:52:45;;;;;;;6.22;1.95;;;;;;;18.10;24.60;100288.34;5153832;27;20106;-68
2022/01/11 09:55:13;;;;;;;4.35;2.30;;;;;;;18.12;24.59;100294.41;5153429;27;20034;-68
2022/01/11 09:57:39;;;;;;;4.72;2.75;;;;;;;18.09;24.59;100291.19;5140517;27;20041;-66
2022/01/11 10:00:08;;;;;;;5.60;2.25;;;;;;;18.07;24.21;100293.16;5149874;27;20030;-69
2022/01/11 10:02:33;;;;;;;3.08;1.83;;;;;;;18.03;24.73;100292.63;5155237;27;20057;-69
2022/01/11 10:05:01;;;;;;;4.45;2.22;;;;;;;18.04;24.54;100304.19;5178727;27;20105;-67
2022/01/11 10:07:36;;;;;;;4.35;2.28;;;;;;;18.03;24.62;100313.19;5152141;27;20030;-67
2022/01/11 10:10:04;;;;;;;4.38;2.50;;;;;;;17.99;24.72;100301.97;5156641;27;20042;-68
2022/01/11 10:12:40;;;;;;;5.15;2.60;;;;;;;17.96;24.38;100303.09;5155008;27;20033;-67
2022/01/11 10:15:06;;;;;;;4.45;2.60;;;;;;;17.96;24.33;100303.09;5153098;27;20031;-69
2022/01/11 10:17:39;;;;;;;7.75;2.95;;;;;;;17.96;24.53;100308.44;5156383;27;20029;-72
2022/01/11 10:20:11;;;;;;;4.30;2.20;;;;;;;17.96;24.34;100311.13;5151282;27;20026;-74
2022/01/11 10:22:46;;;;;;;6.18;3.53;;;;;;;17.97;24.89;100312.84;5137319;27;20057;-68
2022/01/11 10:25:12;;;;;;;4.10;2.50;;;;;;;17.97;24.30;100310.16;5151706;27;20027;-64
2022/01/11 10:27:37;;;;;;;7.32;2.88;;;;;;;17.98;24.19;100309.16;5136912;27;20446;-65
2022/01/11 10:30:17;;;;;;;4.32;2.10;;;;;;;17.96;24.93;100316.47;5137923;27;20039;-68
2022/01/11 10:32:48;;;;;;;4.32;2.30;;;;;;;17.97;24.59;100314.63;5154744;27;20133;-64
2022/01/11 10:35:27;;;;;;;3.85;2.47;;;;;;;18.00;24.84;100322.38;5154988;27;20106;-65
2022/01/11 10:38:00;;;;;;;5.68;2.67;;;;;;;18.02;25.17;100316.88;5155045;27;20485;-64
2022/01/11 10:40:36;;;;;;;6.28;3.22;;;;;;;18.04;24.96;100315.75;5155841;27;20041;-68
2022/01/11 10:43:08;;;;;;;10.73;4.70;;;;;;;18.05;25.16;100320.13;5145946;27;20066;-66
2022/01/11 10:45:47;;;;;;;13.40;5.53;;;;;;;18.09;25.86;100312.63;5156381;27;20035;-64
2022/01/11 10:48:17;;;;;;;9.27;5.00;;;;;;;18.12;25.30;100323.03;5153919;27;20058;-67
2022/01/11 10:50:48;;;;;;;10.23;5.28;;;;;;;18.13;25.87;100322.03;5153869;27;20057;-65
2022/01/11 10:53:17;;;;;;;19.27;7.00;;;;;;;18.12;25.58;100323.03;5155671;27;20023;-65
2022/01/11 10:55:47;;;;;;;12.25;6.22;;;;;;;18.18;25.10;100319.72;5156634;27;20037;-72
2022/01/11 10:58:13;;;;;;;18.90;7.00;;;;;;;18.49;24.89;100314.00;5151010;27;20031;-71
2022/01/11 11:00:41;;;;;;;21.52;7.30;;;;;;;18.79;24.44;100316.44;5154173;27;20086;-73
2022/01/11 11:03:11;;;;;;;18.13;6.80;;;;;;;18.92;24.06;100314.19;5153623;27;20161;-75
2022/01/11 11:05:39;;;;;;;13.95;6.32;;;;;;;19.05;23.85;100314.66;5153900;27;20031;-64
2022/01/11 11:08:10;;;;;;;15.07;6.13;;;;;;;18.92;23.94;100320.38;5158492;27;20030;-66
2022/01/11 11:10:50;;;;;;;20.70;7.07;;;;;;;18.68;25.04;100313.00;5153836;27;20022;-63
2022/01/11 11:13:25;;;;;;;23.27;7.37;;;;;;;18.54;25.32;100321.56;5146691;27;20089;-64
2022/01/11 11:15:53;;;;;;;15.75;6.15;;;;;;;18.42;25.33;100335.22;5143257;27;20493;-64
2022/01/11 11:18:28;;;;;;;15.55;6.13;;;;;;;18.33;25.46;100337.97;5155669;27;20031;-64
2022/01/11 11:20:56;;;;;;;10.77;5.10;;;;;;;18.29;25.25;100334.75;5155277;27;20030;-65
2022/01/11 11:23:22;;;;;;;9.50;4.82;;;;;;;18.25;25.16;100330.69;5155873;27;20030;-65
2022/01/11 11:25:48;;;;;;;10.32;3.75;;;;;;;18.19;24.44;100339.34;5156096;27;20026;-65
2022/01/11 11:28:14;;;;;;;8.05;3.88;;;;;;;18.16;24.07;100343.13;5155465;27;20058;-65
2022/01/11 11:30:41;;;;;;;10.48;4.85;;;;;;;18.11;24.76;100342.78;5156067;27;20033;-66
2022/01/11 11:33:07;;;;;;;11.05;4.80;;;;;;;18.09;24.52;100348.25;5155495;27;20026;-65